createdAt,value
2023-02-11T00:01:22.838Z,25.13
2023-02-11T00:03:50.874Z,24.00
2023-02-11T00:06:18.693Z,24.52
2023-02-11T00:08:47.060Z,25.10
2023-02-11T00:11:16.722Z,23.88
2023-02-11T00:13:45.865Z,26.25
2023-02-11T00:16:19.511Z,23.95
2023-02-11T00:21:18.144Z,22.38
2023-02-11T00:23:46.893Z,23.17
2023-02-11T00:26:15.729Z,24.33
2023-02-11T00:28:44.793Z,23.75
2023-02-11T00:31:13.387Z,23.65
2023-02-11T00:33:41.993Z,23.42
2023-02-11T00:36:15.096Z,22.20
2023-02-11T00:38:47.110Z,23.08
2023-02-11T00:41:15.982Z,22.25
2023-02-11T00:43:44.096Z,21.27
2023-02-11T00:46:12.204Z,21.30
2023-02-11T00:48:40.666Z,21.10
2023-02-11T00:51:09.143Z,20.33
2023-02-11T00:53:37.479Z,20.40
2023-02-11T00:56:05.472Z,21.48
2023-02-11T00:58:34.585Z,18.65
2023-02-11T01:01:02.492Z,17.95
2023-02-11T01:03:30.431Z,19.70
2023-02-11T01:05:58.108Z,18.55
2023-02-11T01:08:26.020Z,19.05
2023-02-11T01:11:02.121Z,19.60
2023-02-11T01:13:32.284Z,19.15
2023-02-11T01:16:00.079Z,20.02
2023-02-11T01:18:28.116Z,18.08
2023-02-11T01:20:55.815Z,19.30
2023-02-11T01:23:24.666Z,18.88
2023-02-11T01:25:53.455Z,18.77
2023-02-11T01:28:24.776Z,19.65
2023-02-11T01:30:53.916Z,19.33
2023-02-11T01:33:22.727Z,18.85
2023-02-11T01:35:51.064Z,19.90
2023-02-11T01:38:25.688Z,18.48
2023-02-11T01:41:06.226Z,18.10
2023-02-11T01:43:44.271Z,19.58
2023-02-11T01:46:32.715Z,18.23
2023-02-11T01:49:11.161Z,18.33
2023-02-11T01:51:50.734Z,18.80
2023-02-11T01:54:40.755Z,18.70
2023-02-11T01:57:23.212Z,19.98
2023-02-11T01:59:57.924Z,17.58
2023-02-11T02:02:44.139Z,17.58
2023-02-11T02:05:15.181Z,17.73
2023-02-11T02:08:09.774Z,16.85
2023-02-11T02:10:41.716Z,16.75
2023-02-11T02:13:09.611Z,17.23
2023-02-11T02:15:41.286Z,17.20
2023-02-11T02:18:08.862Z,17.05
2023-02-11T02:20:51.608Z,15.27
2023-02-11T02:23:28.715Z,16.38
2023-02-11T02:26:20.485Z,14.10
2023-02-11T02:28:53.916Z,15.85
2023-02-11T02:31:47.246Z,15.63
2023-02-11T02:34:26.739Z,15.35
2023-02-11T02:37:19.706Z,14.50
2023-02-11T02:39:50.336Z,15.35
2023-02-11T02:42:20.137Z,14.93
2023-02-11T02:47:02.623Z,14.45
2023-02-11T02:49:30.725Z,15.57
2023-02-11T02:52:12.535Z,14.48
2023-02-11T02:55:07.104Z,14.80
2023-02-11T02:58:03.247Z,13.85
2023-02-11T03:01:00.735Z,14.15
2023-02-11T03:03:47.024Z,13.80
2023-02-11T03:06:34.464Z,14.38
2023-02-11T03:09:12.356Z,15.35
2023-02-11T03:11:40.973Z,12.90
2023-02-11T03:14:12.863Z,13.00
2023-02-11T03:16:41.374Z,13.52
2023-02-11T03:19:24.165Z,14.10
2023-02-11T03:21:53.397Z,14.77
2023-02-11T03:24:39.976Z,13.60
2023-02-11T03:27:20.363Z,13.23
2023-02-11T03:29:59.387Z,12.65
2023-02-11T03:32:29.611Z,13.95
2023-02-11T03:35:08.722Z,13.93
2023-02-11T03:38:00.353Z,12.45
2023-02-11T03:40:32.613Z,12.65
2023-02-11T03:43:31.035Z,12.18
2023-02-11T03:46:00.793Z,12.38
2023-02-11T03:48:42.155Z,12.98
2023-02-11T03:51:12.522Z,13.70
2023-02-11T03:53:43.628Z,12.82
2023-02-11T03:56:18.853Z,13.25
2023-02-11T03:58:47.890Z,12.07
2023-02-11T04:01:16.450Z,12.35
2023-02-11T04:03:44.416Z,12.35
2023-02-11T04:06:12.075Z,12.23
2023-02-11T04:08:39.882Z,12.55
2023-02-11T04:11:07.439Z,12.05
2023-02-11T04:13:35.386Z,12.20
2023-02-11T04:16:03.048Z,11.93
2023-02-11T04:18:32.944Z,12.68
2023-02-11T04:21:00.707Z,12.18
2023-02-11T04:23:29.186Z,13.13
2023-02-11T04:25:56.958Z,12.75
2023-02-11T04:28:24.873Z,12.98
2023-02-11T04:30:52.475Z,13.68
2023-02-11T04:33:20.367Z,14.00
2023-02-11T04:35:47.952Z,13.15
2023-02-11T04:38:15.985Z,15.15
2023-02-11T04:40:43.625Z,13.52
2023-02-11T04:43:11.496Z,14.18
2023-02-11T04:45:39.134Z,14.70
2023-02-11T04:48:07.079Z,14.93
2023-02-11T04:50:34.617Z,14.13
2023-02-11T04:53:02.468Z,14.85
2023-02-11T04:55:30.040Z,14.95
2023-02-11T04:57:57.877Z,15.73
2023-02-11T05:00:25.465Z,15.95
2023-02-11T05:02:53.291Z,15.65
2023-02-11T05:05:20.963Z,15.43
2023-02-11T05:07:48.821Z,17.50
2023-02-11T05:10:16.516Z,16.25
2023-02-11T05:12:44.380Z,16.08
2023-02-11T05:15:11.932Z,16.80
2023-02-11T05:17:39.774Z,16.85
2023-02-11T05:20:07.960Z,15.75
2023-02-11T05:22:35.765Z,17.48
2023-02-11T05:25:03.363Z,17.67
2023-02-11T05:27:31.231Z,17.50
2023-02-11T05:29:58.752Z,17.15
2023-02-11T05:32:26.863Z,17.58
2023-02-11T05:34:54.392Z,17.90
2023-02-11T05:37:22.321Z,18.63
2023-02-11T05:39:50.062Z,18.35
2023-02-11T05:42:17.889Z,17.15
2023-02-11T05:44:45.482Z,15.32
2023-02-11T05:47:13.367Z,17.67
2023-02-11T05:49:41.159Z,19.13
2023-02-11T05:52:08.961Z,16.95
2023-02-11T05:54:36.658Z,16.55
2023-02-11T05:57:04.931Z,16.42
2023-02-11T05:59:32.548Z,18.10
2023-02-11T06:02:00.780Z,17.90
2023-02-11T06:04:28.287Z,17.42
2023-02-11T06:06:56.714Z,17.92
2023-02-11T06:09:24.350Z,18.52
2023-02-11T06:11:52.365Z,18.33
2023-02-11T06:14:20.404Z,17.48
2023-02-11T06:16:48.310Z,17.30
2023-02-11T06:19:15.944Z,18.42
2023-02-11T06:21:44.644Z,18.30
2023-02-11T06:24:12.713Z,17.60
2023-02-11T06:26:40.757Z,17.52
2023-02-11T06:29:08.572Z,17.05
2023-02-11T06:31:39.538Z,18.77
2023-02-11T06:34:08.555Z,18.30
2023-02-11T06:36:38.218Z,18.10
2023-02-11T06:39:06.647Z,18.98
2023-02-11T06:41:34.705Z,19.80
2023-02-11T06:44:02.334Z,18.73
2023-02-11T06:46:30.498Z,18.65
2023-02-11T06:48:58.126Z,19.55
2023-02-11T06:51:26.019Z,19.77
2023-02-11T06:53:53.731Z,19.52
2023-02-11T06:56:23.634Z,19.45
2023-02-11T06:58:57.769Z,20.17
2023-02-11T07:01:27.877Z,21.02
2023-02-11T07:03:55.860Z,19.73
2023-02-11T07:06:27.762Z,19.23
2023-02-11T07:08:56.214Z,20.88
2023-02-11T07:11:27.240Z,19.63
2023-02-11T07:13:59.729Z,20.20
2023-02-11T07:16:27.960Z,20.77
2023-02-11T07:18:55.707Z,20.73
2023-02-11T07:21:24.426Z,21.73
2023-02-11T07:23:52.259Z,18.33
2023-02-11T07:26:29.211Z,20.80
2023-02-11T07:28:56.894Z,20.10
2023-02-11T07:31:27.320Z,21.90
2023-02-11T07:33:57.151Z,21.83
2023-02-11T07:36:26.088Z,23.05
2023-02-11T07:38:54.017Z,22.73
2023-02-11T07:41:23.636Z,23.38
2023-02-11T07:43:51.760Z,23.27
2023-02-11T07:46:24.804Z,24.52
2023-02-11T07:48:53.362Z,23.02
2023-02-11T07:51:27.475Z,23.83
2023-02-11T07:53:57.104Z,23.77
2023-02-11T07:56:25.398Z,25.10
2023-02-11T07:58:53.331Z,23.60
2023-02-11T08:01:25.630Z,23.08
2023-02-11T08:03:54.513Z,23.50
2023-02-11T08:06:24.613Z,24.23
2023-02-11T08:08:52.337Z,25.55
2023-02-11T08:11:23.506Z,25.52
2023-02-11T08:13:51.732Z,25.60
2023-02-11T08:16:25.844Z,25.75
2023-02-11T08:21:21.828Z,24.95
2023-02-11T08:23:50.036Z,24.63
2023-02-11T08:26:20.844Z,27.33
2023-02-11T08:28:50.724Z,26.95
2023-02-11T08:31:21.856Z,26.88
2023-02-11T08:33:49.789Z,28.73
2023-02-11T08:36:23.667Z,25.98
2023-02-11T08:38:51.589Z,28.55
2023-02-11T08:41:19.505Z,30.13
2023-02-11T08:43:47.464Z,29.27
2023-02-11T08:46:18.071Z,31.55
2023-02-11T08:48:47.062Z,28.88
2023-02-11T08:51:21.312Z,29.30
2023-02-11T08:53:49.740Z,29.17
2023-02-11T08:56:19.832Z,29.65
2023-02-11T08:58:47.875Z,30.10
2023-02-11T09:01:20.562Z,28.83
2023-02-11T09:03:49.412Z,30.55
2023-02-11T09:06:18.646Z,29.13
2023-02-11T09:08:49.427Z,29.63
2023-02-11T09:11:20.072Z,31.25
2023-02-11T09:13:47.839Z,30.67
2023-02-11T09:16:21.977Z,32.33
2023-02-11T09:18:50.236Z,29.42
2023-02-11T09:21:19.161Z,32.28
2023-02-11T09:23:48.008Z,29.38
2023-02-11T09:26:21.800Z,28.90
2023-02-11T09:28:50.036Z,29.45
2023-02-11T09:31:20.244Z,27.88
2023-02-11T09:33:50.130Z,29.10
2023-02-11T09:36:21.458Z,25.83
2023-02-11T09:38:49.739Z,26.92
2023-02-11T09:41:32.746Z,26.95
2023-02-11T09:44:04.845Z,27.55
2023-02-11T09:46:41.809Z,28.35
2023-02-11T09:49:19.883Z,28.27
2023-02-11T09:51:57.762Z,29.15
2023-02-11T09:54:35.527Z,27.65
2023-02-11T09:57:03.683Z,30.23
2023-02-11T09:59:31.337Z,28.10
2023-02-11T10:02:18.298Z,28.50
2023-02-11T10:05:05.226Z,29.80
2023-02-11T10:07:46.404Z,30.33
2023-02-11T10:10:34.116Z,29.38
2023-02-11T10:13:10.695Z,30.20
2023-02-11T10:16:08.001Z,28.77
2023-02-11T10:19:07.354Z,29.63
2023-02-11T10:22:12.276Z,28.35
2023-02-11T10:24:42.529Z,28.85
2023-02-11T10:27:19.748Z,29.52
2023-02-11T10:29:55.363Z,29.17
2023-02-11T10:32:33.651Z,28.33
2023-02-11T10:35:10.225Z,29.65
2023-02-11T10:37:37.949Z,26.40
2023-02-11T10:40:13.542Z,30.38
2023-02-11T10:42:45.705Z,29.73
2023-02-11T10:45:32.550Z,29.23
2023-02-11T10:48:01.738Z,27.45
2023-02-11T10:50:35.202Z,27.80
2023-02-11T10:53:21.641Z,22.33
2023-02-11T10:55:57.489Z,29.17
2023-02-11T10:58:54.593Z,28.13
2023-02-11T11:01:25.001Z,24.83
2023-02-11T11:03:53.334Z,29.42
2023-02-11T11:06:33.353Z,29.05
2023-02-11T11:09:01.232Z,30.65
2023-02-11T11:11:29.360Z,28.35
2023-02-11T11:14:03.259Z,30.25
2023-02-11T11:16:36.287Z,29.75
2023-02-11T11:19:09.714Z,28.27
2023-02-11T11:21:43.224Z,27.33
2023-02-11T11:24:22.845Z,30.55
2023-02-11T11:26:54.004Z,32.08
2023-02-11T11:29:30.511Z,31.67
2023-02-11T11:32:05.517Z,31.40
2023-02-11T11:34:38.268Z,31.80
2023-02-11T11:37:22.836Z,32.15
2023-02-11T11:40:02.477Z,29.15
2023-02-11T11:42:33.203Z,34.00
2023-02-11T11:45:20.160Z,32.88
2023-02-11T11:48:18.532Z,33.65
2023-02-11T11:50:52.958Z,32.20
2023-02-11T11:53:52.142Z,33.08
2023-02-11T11:56:28.023Z,31.85
2023-02-11T11:58:56.066Z,33.03
2023-02-11T12:01:51.825Z,34.30
2023-02-11T12:04:19.589Z,32.58
2023-02-11T12:07:12.054Z,32.72
2023-02-11T12:09:58.760Z,33.53
2023-02-11T12:13:00.959Z,33.35
2023-02-11T12:15:39.306Z,34.63
2023-02-11T12:18:10.064Z,32.60
2023-02-11T12:21:04.719Z,31.23
2023-02-11T12:26:20.566Z,31.02
2023-02-11T12:29:20.468Z,30.27
2023-02-11T12:31:54.697Z,32.60
2023-02-11T12:37:20.037Z,33.30
2023-02-11T12:39:51.336Z,33.08
2023-02-11T12:43:10.579Z,34.97
2023-02-11T12:46:02.687Z,39.28
2023-02-11T12:49:11.620Z,37.55
2023-02-11T12:51:55.733Z,34.28
2023-02-11T12:55:02.019Z,35.95
2023-02-11T12:57:33.313Z,35.75
2023-02-11T13:00:18.960Z,34.42
2023-02-11T13:02:59.635Z,35.33
2023-02-11T13:05:33.180Z,31.80
2023-02-11T13:08:24.972Z,34.30
2023-02-11T13:11:04.493Z,36.22
2023-02-11T13:13:54.936Z,36.08
2023-02-11T13:16:35.157Z,36.10
2023-02-11T13:19:11.288Z,36.65
2023-02-11T13:22:07.125Z,33.83
2023-02-11T13:24:53.349Z,33.40
2023-02-11T13:27:45.852Z,37.90
2023-02-11T13:30:29.343Z,37.88
2023-02-11T13:32:57.403Z,37.42
2023-02-11T13:35:32.918Z,35.35
2023-02-11T13:38:03.566Z,36.47
2023-02-11T13:40:38.191Z,36.42
2023-02-11T13:43:19.971Z,36.17
2023-02-11T13:45:50.120Z,36.85
2023-02-11T13:48:25.467Z,37.63
2023-02-11T13:50:56.789Z,37.42
2023-02-11T13:53:25.594Z,35.85
2023-02-11T13:56:07.787Z,33.72
2023-02-11T13:58:46.332Z,38.65
2023-02-11T14:01:39.861Z,37.53
2023-02-11T14:04:42.832Z,38.75
2023-02-11T14:07:50.245Z,36.17
2023-02-11T14:10:43.092Z,32.65
2023-02-11T14:13:26.368Z,33.42
2023-02-11T14:16:08.017Z,37.58
2023-02-11T14:18:38.752Z,36.25
2023-02-11T14:21:13.262Z,36.78
2023-02-11T14:23:41.881Z,36.80
2023-02-11T14:26:21.750Z,36.35
2023-02-11T14:29:07.065Z,36.70
2023-02-11T14:31:49.242Z,35.63
2023-02-11T14:34:44.555Z,36.92
2023-02-11T14:37:12.353Z,34.03
2023-02-11T14:40:17.843Z,35.42
2023-02-11T14:42:45.981Z,33.88
2023-02-11T14:45:20.162Z,35.78
2023-02-11T14:48:04.678Z,34.78
2023-02-11T14:50:48.598Z,33.40
2023-02-11T14:53:23.742Z,34.15
2023-02-11T14:55:53.496Z,36.22
2023-02-11T14:58:31.651Z,35.80
2023-02-11T15:01:02.179Z,39.88
2023-02-11T15:03:37.396Z,37.67
2023-02-11T15:06:15.001Z,34.75
2023-02-11T15:08:51.343Z,37.03
2023-02-11T15:11:22.342Z,34.53
2023-02-11T15:13:52.557Z,32.70
2023-02-11T15:16:26.336Z,30.77
2023-02-11T15:19:04.381Z,27.65
2023-02-11T15:21:34.542Z,29.70
2023-02-11T15:24:21.467Z,31.27
2023-02-11T15:27:18.492Z,30.83
2023-02-11T15:29:49.466Z,30.27
2023-02-11T15:32:21.568Z,31.35
2023-02-11T15:34:52.110Z,30.70
2023-02-11T15:37:29.864Z,32.90
2023-02-11T15:40:12.108Z,32.80
2023-02-11T15:42:52.066Z,31.90
2023-02-11T15:45:20.602Z,32.90
2023-02-11T15:47:52.183Z,32.67
2023-02-11T15:50:22.833Z,32.50
2023-02-11T15:52:51.920Z,33.10
2023-02-11T15:55:20.597Z,34.10
2023-02-11T15:58:03.514Z,30.17
2023-02-11T16:00:36.575Z,33.23
2023-02-11T16:03:04.677Z,31.75
2023-02-11T16:05:38.007Z,30.90
2023-02-11T16:08:24.301Z,31.38
2023-02-11T16:10:58.744Z,30.67
2023-02-11T16:13:28.424Z,31.02
2023-02-11T16:16:04.756Z,31.10
2023-02-11T16:18:52.012Z,31.73
2023-02-11T16:21:41.188Z,30.37
2023-02-11T16:24:18.555Z,30.88
2023-02-11T16:26:52.794Z,30.65
2023-02-11T16:31:54.042Z,29.35
2023-02-11T16:34:24.321Z,30.88
2023-02-11T16:36:53.168Z,32.00
2023-02-11T16:39:22.537Z,30.85
2023-02-11T16:41:51.861Z,30.40
2023-02-11T16:44:19.970Z,29.13
2023-02-11T16:46:48.231Z,29.98
2023-02-11T16:49:29.939Z,31.13
2023-02-11T16:52:01.846Z,31.92
2023-02-11T16:54:30.562Z,27.50
2023-02-11T16:56:59.045Z,30.88
2023-02-11T16:59:26.605Z,27.27
2023-02-11T17:01:55.627Z,29.15
2023-02-11T17:04:30.196Z,27.75
2023-02-11T17:06:58.750Z,27.75
2023-02-11T17:09:30.517Z,26.02
2023-02-11T17:11:58.936Z,26.88
2023-02-11T17:14:26.784Z,30.27
2023-02-11T17:16:54.660Z,29.35
2023-02-11T17:19:22.501Z,26.90
2023-02-11T17:21:52.281Z,26.13
2023-02-11T17:24:21.279Z,25.13
2023-02-11T17:26:49.907Z,28.02
2023-02-11T17:29:20.438Z,25.02
2023-02-11T17:31:49.203Z,26.10
2023-02-11T17:34:18.457Z,24.45
2023-02-11T17:36:46.542Z,25.08
2023-02-11T17:39:14.657Z,26.13
2023-02-11T17:41:42.648Z,26.83
2023-02-11T17:44:12.539Z,25.98
2023-02-11T17:46:40.644Z,25.63
2023-02-11T17:49:08.142Z,24.88
2023-02-11T17:51:38.083Z,25.33
2023-02-11T17:54:13.179Z,26.60
2023-02-11T17:56:41.871Z,25.20
2023-02-11T17:59:11.793Z,26.27
2023-02-11T18:01:41.864Z,23.73
2023-02-11T18:04:15.487Z,23.92
2023-02-11T18:06:43.894Z,23.77
2023-02-11T18:09:12.349Z,23.00
2023-02-11T18:11:41.334Z,24.17
2023-02-11T18:14:11.134Z,25.08
2023-02-11T18:16:40.401Z,21.85
2023-02-11T18:19:08.164Z,21.92
2023-02-11T18:21:36.411Z,21.63
2023-02-11T18:24:06.995Z,21.40
2023-02-11T18:26:36.009Z,22.45
2023-02-11T18:29:06.201Z,20.25
2023-02-11T18:31:37.982Z,20.52
2023-02-11T18:34:07.656Z,20.92
2023-02-11T18:36:35.910Z,21.75
2023-02-11T18:39:05.070Z,20.25
2023-02-11T18:41:33.266Z,20.25
2023-02-11T18:44:03.029Z,20.10
2023-02-11T18:46:31.450Z,19.67
2023-02-11T18:48:59.038Z,19.23
2023-02-11T18:51:27.507Z,18.92
2023-02-11T18:53:55.110Z,19.65
2023-02-11T18:56:25.138Z,19.33
2023-02-11T18:58:52.986Z,18.52
2023-02-11T19:01:29.844Z,18.90
2023-02-11T19:03:59.323Z,19.67
2023-02-11T19:06:29.443Z,18.83
2023-02-11T19:09:00.036Z,18.35
2023-02-11T19:11:49.073Z,19.30
2023-02-11T19:14:35.622Z,20.20
2023-02-11T19:17:06.722Z,19.10
2023-02-11T19:19:36.537Z,18.55
2023-02-11T19:22:10.559Z,18.52
2023-02-11T19:27:06.813Z,17.75
2023-02-11T19:29:35.300Z,17.88
2023-02-11T19:32:05.856Z,19.20
2023-02-11T19:34:33.845Z,19.02
2023-02-11T19:37:01.819Z,19.05
2023-02-11T19:39:29.438Z,18.17
2023-02-11T19:41:57.314Z,18.75
2023-02-11T19:44:24.928Z,18.27
2023-02-11T19:46:53.398Z,18.40
2023-02-11T19:49:25.888Z,17.52
2023-02-11T19:51:57.400Z,17.60
2023-02-11T19:54:26.486Z,18.67
2023-02-11T19:56:54.809Z,18.15
2023-02-11T19:59:22.865Z,18.45
2023-02-11T20:01:53.042Z,18.92
2023-02-11T20:04:20.651Z,18.65
2023-02-11T20:06:49.605Z,17.85
2023-02-11T20:09:17.312Z,18.17
2023-02-11T20:11:45.492Z,17.42
2023-02-11T20:14:15.244Z,18.73
2023-02-11T20:16:49.198Z,17.90
2023-02-11T20:19:20.276Z,17.05
2023-02-11T20:21:51.124Z,16.50
2023-02-11T20:24:19.883Z,18.58
2023-02-11T20:26:48.622Z,17.70
2023-02-11T20:29:18.418Z,19.75
2023-02-11T20:31:46.701Z,17.27
2023-02-11T20:34:17.002Z,18.73
2023-02-11T20:36:51.700Z,17.63
2023-02-11T20:39:22.225Z,18.40
2023-02-11T20:41:51.239Z,18.98
2023-02-11T20:44:19.343Z,21.83
2023-02-11T20:46:47.516Z,22.65
2023-02-11T20:49:18.915Z,19.13
2023-02-11T20:51:47.925Z,19.63
2023-02-11T20:54:18.247Z,18.00
2023-02-11T20:56:48.187Z,17.30
2023-02-11T20:59:16.858Z,16.08
2023-02-11T21:01:48.346Z,15.50
2023-02-11T21:04:21.576Z,13.88
2023-02-11T21:06:52.308Z,14.88
2023-02-11T21:09:25.615Z,11.85
2023-02-11T21:11:54.354Z,10.82
2023-02-11T21:14:23.437Z,8.50
2023-02-11T21:16:52.519Z,5.97
2023-02-11T21:19:21.275Z,5.80
2023-02-11T21:21:49.473Z,5.03
2023-02-11T21:24:17.267Z,4.07
2023-02-11T21:29:05.393Z,3.40
2023-02-11T21:31:34.604Z,3.33
2023-02-11T21:34:02.461Z,3.50
2023-02-11T21:36:31.108Z,3.80
2023-02-11T21:39:00.133Z,3.33
2023-02-11T21:41:28.989Z,3.33
2023-02-11T21:43:57.420Z,3.00
2023-02-11T21:46:25.402Z,2.63
2023-02-11T21:48:53.335Z,2.50
2023-02-11T21:51:24.983Z,2.50
2023-02-11T21:54:01.189Z,2.53
2023-02-11T21:56:30.983Z,2.90
2023-02-11T21:58:59.802Z,2.55
2023-02-11T22:01:35.249Z,2.65
2023-02-11T22:04:03.006Z,2.90
2023-02-11T22:06:33.975Z,2.05
2023-02-11T22:09:10.771Z,2.67
2023-02-11T22:11:38.995Z,2.83
2023-02-11T22:14:06.972Z,2.35
2023-02-11T22:16:35.159Z,2.13
2023-02-11T22:19:02.889Z,2.30
2023-02-11T22:21:30.896Z,1.92
2023-02-11T22:23:58.809Z,2.50
2023-02-11T22:26:28.402Z,2.47
2023-02-11T22:28:56.684Z,2.15
2023-02-11T22:31:28.758Z,2.40
2023-02-11T22:33:57.225Z,2.40
2023-02-11T22:36:26.725Z,2.20
2023-02-11T22:38:54.892Z,2.05
2023-02-11T22:41:23.407Z,2.00
2023-02-11T22:43:51.174Z,1.50
2023-02-11T22:46:19.992Z,1.63
2023-02-11T22:48:48.672Z,2.13
2023-02-11T22:51:25.248Z,1.88
2023-02-11T22:53:55.400Z,2.00
2023-02-11T22:56:24.434Z,1.90
2023-02-11T22:58:53.701Z,1.90
2023-02-11T23:01:21.706Z,2.03
2023-02-11T23:03:49.883Z,2.08
2023-02-11T23:06:18.197Z,2.88
2023-02-11T23:08:46.205Z,2.30
2023-02-11T23:11:16.935Z,1.80
2023-02-11T23:13:46.054Z,2.13
2023-02-11T23:16:17.833Z,2.35
2023-02-11T23:18:47.596Z,2.17
2023-02-11T23:21:26.721Z,2.05
2023-02-11T23:23:56.761Z,1.80
2023-02-11T23:26:25.298Z,1.80
2023-02-11T23:28:53.317Z,2.00
2023-02-11T23:31:37.453Z,2.20
2023-02-11T23:36:33.534Z,1.67
2023-02-11T23:39:01.316Z,1.75
2023-02-11T23:41:29.309Z,2.30
2023-02-11T23:43:58.669Z,2.03
2023-02-11T23:46:27.740Z,1.70
2023-02-11T23:48:55.468Z,1.90
2023-02-11T23:51:24.413Z,2.00
2023-02-11T23:53:54.128Z,2.17
2023-02-11T23:56:25.000Z,2.00
2023-02-11T23:58:54.966Z,1.48
